KRHI/RHI METAR and TAF weather

Enter ICAO airport designator
Station Type Date Time Source
KRHI METAR 2019/08/25 05:53 UTC NOAA

KRHI 250553Z AUTO 13004KT 10SM CLR 12/10 A3023 RMK AO2 SLP237 T01220100 10189 20122 402170056 56006


Station Type Date Time Source
KRHI Decoded METAR 2019/08/25 05:53 UTC NOAA

Station name not available
Aug 25, 2019 - 01:53 AM EDT / 2019.08.25 0553 UTC
Wind: from the SE (130 degrees) at 5 MPH (4 KT):0
Visibility: 10 mile(s):0
Sky conditions: clear
Temperature: 54.0 F (12.2 C)
Dew Point: 50.0 F (10.0 C)
Relative Humidity: 86%
Pressure (altimeter): 30.23 in. Hg (1023 hPa)
Pressure tendency: 0.02 inches (0.6 hPa) lower than three hours ago
ob: KRHI 250553Z AUTO 13004KT 10SM CLR 12/10 A3023 RMK AO2 SLP237 T01220100 10189 20122 402170056 56006
cycle: 6

Station Type Date Time Source
KRHI TAF 2019/08/25 06:22 UTC NOAA

TAF KRHI 250520Z 2506/2606 14003KT P6SM SCT250
FM251500 16009KT P6SM SCT030 SCT200
FM251800 15010KT P6SM BKN035
FM260100 13007KT P6SM SCT035 BKN100

Example: see airport list